sensor_id;sensor_type;location;lat;lon;timestamp;temperature;humidity
43673;DHT22;41723;49.326;8.430;2023-04-02T00:08:50;10.20;99.90
43673;DHT22;41723;49.326;8.430;2023-04-02T00:11:26;10.10;99.90
43673;DHT22;41723;49.326;8.430;2023-04-02T00:13:53;10.20;99.90
43673;DHT22;41723;49.326;8.430;2023-04-02T00:16:21;10.20;99.90
43673;DHT22;41723;49.326;8.430;2023-04-02T00:18:49;10.20;99.90
43673;DHT22;41723;49.326;8.430;2023-04-02T00:23:45;10.10;99.90
43673;DHT22;41723;49.326;8.430;2023-04-02T00:26:26;10.10;99.90
43673;DHT22;41723;49.326;8.430;2023-04-02T00:28:53;10.10;99.90
43673;DHT22;41723;49.326;8.430;2023-04-02T00:31:19;10.10;99.90
43673;DHT22;41723;49.326;8.430;2023-04-02T00:33:44;10.10;99.90
43673;DHT22;41723;49.326;8.430;2023-04-02T00:36:10;10.10;99.90
43673;DHT22;41723;49.326;8.430;2023-04-02T00:38:36;10.10;99.90
43673;DHT22;41723;49.326;8.430;2023-04-02T00:41:03;10.00;99.90
43673;DHT22;41723;49.326;8.430;2023-04-02T00:43:35;10.10;99.90
43673;DHT22;41723;49.326;8.430;2023-04-02T00:46:03;10.10;99.90
43673;DHT22;41723;49.326;8.430;2023-04-02T00:48:36;10.10;99.90
43673;DHT22;41723;49.326;8.430;2023-04-02T00:51:12;10.10;99.90
43673;DHT22;41723;49.326;8.430;2023-04-02T00:53:38;10.10;99.90
43673;DHT22;41723;49.326;8.430;2023-04-02T00:56:07;10.10;99.90
43673;DHT22;41723;49.326;8.430;2023-04-02T00:58:37;10.10;99.90
43673;DHT22;41723;49.326;8.430;2023-04-02T01:01:13;10.10;99.90
43673;DHT22;41723;49.326;8.430;2023-04-02T01:03:39;10.10;99.90
43673;DHT22;41723;49.326;8.430;2023-04-02T01:06:09;10.10;99.90
43673;DHT22;41723;49.326;8.430;2023-04-02T01:29:11;10.00;99.90
43673;DHT22;41723;49.326;8.430;2023-04-02T01:31:38;10.10;99.90
43673;DHT22;41723;49.326;8.430;2023-04-02T01:34:06;10.00;99.90
43673;DHT22;41723;49.326;8.430;2023-04-02T01:41:35;10.00;99.90
43673;DHT22;41723;49.326;8.430;2023-04-02T01:44:26;10.00;99.90
43673;DHT22;41723;49.326;8.430;2023-04-02T01:46:49;10.00;99.90
43673;DHT22;41723;49.326;8.430;2023-04-02T01:49:17;10.10;99.90
43673;DHT22;41723;49.326;8.430;2023-04-02T01:51:44;10.10;99.90
43673;DHT22;41723;49.326;8.430;2023-04-02T01:54:12;10.00;99.90
43673;DHT22;41723;49.326;8.430;2023-04-02T01:56:38;10.00;99.90
43673;DHT22;41723;49.326;8.430;2023-04-02T01:59:05;10.00;99.90
43673;DHT22;41723;49.326;8.430;2023-04-02T02:01:41;10.00;99.90
43673;DHT22;41723;49.326;8.430;2023-04-02T02:04:10;9.90;99.90
43673;DHT22;41723;49.326;8.430;2023-04-02T02:06:36;9.90;99.90
43673;DHT22;41723;49.326;8.430;2023-04-02T02:09:03;9.90;99.90
43673;DHT22;41723;49.326;8.430;2023-04-02T02:11:30;9.90;99.90
43673;DHT22;41723;49.326;8.430;2023-04-02T02:13:57;9.90;99.90
43673;DHT22;41723;49.326;8.430;2023-04-02T02:16:24;9.90;99.90
43673;DHT22;41723;49.326;8.430;2023-04-02T02:18:58;10.00;99.90
43673;DHT22;41723;49.326;8.430;2023-04-02T02:24:00;9.80;99.90
43673;DHT22;41723;49.326;8.430;2023-04-02T02:26:26;9.80;99.90
43673;DHT22;41723;49.326;8.430;2023-04-02T02:28:54;9.70;99.90
43673;DHT22;41723;49.326;8.430;2023-04-02T02:31:22;9.70;99.90
43673;DHT22;41723;49.326;8.430;2023-04-02T02:33:55;9.80;99.90
43673;DHT22;41723;49.326;8.430;2023-04-02T02:36:30;9.70;99.90
43673;DHT22;41723;49.326;8.430;2023-04-02T02:39:00;9.70;99.90
43673;DHT22;41723;49.326;8.430;2023-04-02T02:41:51;9.80;99.90
43673;DHT22;41723;49.326;8.430;2023-04-02T02:44:51;9.80;99.90
43673;DHT22;41723;49.326;8.430;2023-04-02T02:47:17;9.80;99.90
43673;DHT22;41723;49.326;8.430;2023-04-02T02:49:51;9.90;99.90
43673;DHT22;41723;49.326;8.430;2023-04-02T02:52:29;9.80;99.90
43673;DHT22;41723;49.326;8.430;2023-04-02T02:55:02;9.70;99.90
43673;DHT22;41723;49.326;8.430;2023-04-02T02:57:45;9.80;99.90
43673;DHT22;41723;49.326;8.430;2023-04-02T03:00:12;9.80;99.90
43673;DHT22;41723;49.326;8.430;2023-04-02T03:02:40;9.90;99.90
43673;DHT22;41723;49.326;8.430;2023-04-02T03:05:08;9.90;99.90
43673;DHT22;41723;49.326;8.430;2023-04-02T03:07:40;9.90;99.90
43673;DHT22;41723;49.326;8.430;2023-04-02T03:10:16;9.80;99.90
43673;DHT22;41723;49.326;8.430;2023-04-02T03:15:35;9.80;99.90
43673;DHT22;41723;49.326;8.430;2023-04-02T03:18:05;9.80;99.90
43673;DHT22;41723;49.326;8.430;2023-04-02T03:20:35;9.80;99.90
43673;DHT22;41723;49.326;8.430;2023-04-02T03:25:42;9.70;99.90
43673;DHT22;41723;49.326;8.430;2023-04-02T03:28:12;9.80;99.90
43673;DHT22;41723;49.326;8.430;2023-04-02T03:30:44;9.70;99.90
43673;DHT22;41723;49.326;8.430;2023-04-02T03:33:32;9.80;99.90
43673;DHT22;41723;49.326;8.430;2023-04-02T03:36:16;9.80;99.90
43673;DHT22;41723;49.326;8.430;2023-04-02T03:38:53;9.70;99.90
43673;DHT22;41723;49.326;8.430;2023-04-02T03:41:21;9.70;99.90
43673;DHT22;41723;49.326;8.430;2023-04-02T03:43:50;9.70;99.90
43673;DHT22;41723;49.326;8.430;2023-04-02T03:48:44;9.70;99.90
43673;DHT22;41723;49.326;8.430;2023-04-02T03:51:26;9.60;99.90
43673;DHT22;41723;49.326;8.430;2023-04-02T03:53:55;9.70;99.90
43673;DHT22;41723;49.326;8.430;2023-04-02T03:56:25;9.60;99.90
43673;DHT22;41723;49.326;8.430;2023-04-02T03:58:55;9.60;99.90
43673;DHT22;41723;49.326;8.430;2023-04-02T04:01:34;9.70;99.90
43673;DHT22;41723;49.326;8.430;2023-04-02T04:04:03;9.70;99.90
43673;DHT22;41723;49.326;8.430;2023-04-02T04:06:32;9.70;99.90
43673;DHT22;41723;49.326;8.430;2023-04-02T04:08:59;9.70;99.90
43673;DHT22;41723;49.326;8.430;2023-04-02T04:11:27;9.70;99.90
43673;DHT22;41723;49.326;8.430;2023-04-02T04:13:56;9.70;99.90
43673;DHT22;41723;49.326;8.430;2023-04-02T04:16:25;9.70;99.90
43673;DHT22;41723;49.326;8.430;2023-04-02T04:19:02;9.70;99.90
43673;DHT22;41723;49.326;8.430;2023-04-02T04:21:31;9.60;99.90
43673;DHT22;41723;49.326;8.430;2023-04-02T04:24:17;9.70;99.90
43673;DHT22;41723;49.326;8.430;2023-04-02T04:27:07;9.70;99.90
43673;DHT22;41723;49.326;8.430;2023-04-02T04:32:28;9.70;99.90
43673;DHT22;41723;49.326;8.430;2023-04-02T04:35:28;9.70;99.90
43673;DHT22;41723;49.326;8.430;2023-04-02T04:38:25;9.70;99.90
43673;DHT22;41723;49.326;8.430;2023-04-02T04:40:47;9.80;99.90
43673;DHT22;41723;49.326;8.430;2023-04-02T04:43:23;9.80;99.90
43673;DHT22;41723;49.326;8.430;2023-04-02T04:45:50;9.80;99.90
43673;DHT22;41723;49.326;8.430;2023-04-02T04:48:26;9.80;99.90
43673;DHT22;41723;49.326;8.430;2023-04-02T04:53:23;9.80;99.90
43673;DHT22;41723;49.326;8.430;2023-04-02T04:55:51;9.80;99.90
43673;DHT22;41723;49.326;8.430;2023-04-02T04:58:22;9.80;99.90
43673;DHT22;41723;49.326;8.430;2023-04-02T05:05:44;9.90;99.90
43673;DHT22;41723;49.326;8.430;2023-04-02T05:08:18;9.90;99.90
43673;DHT22;41723;49.326;8.430;2023-04-02T05:10:51;9.80;99.90
43673;DHT22;41723;49.326;8.430;2023-04-02T05:15:49;9.80;99.90
43673;DHT22;41723;49.326;8.430;2023-04-02T05:18:27;9.80;99.90
43673;DHT22;41723;49.326;8.430;2023-04-02T05:23:27;9.80;99.90
43673;DHT22;41723;49.326;8.430;2023-04-02T05:26:06;9.80;99.90
43673;DHT22;41723;49.326;8.430;2023-04-02T05:28:37;9.90;99.90
43673;DHT22;41723;49.326;8.430;2023-04-02T05:31:07;9.80;99.90
43673;DHT22;41723;49.326;8.430;2023-04-02T05:33:37;9.90;99.90
43673;DHT22;41723;49.326;8.430;2023-04-02T05:36:07;9.80;99.90
43673;DHT22;41723;49.326;8.430;2023-04-02T05:38:42;9.80;99.90
43673;DHT22;41723;49.326;8.430;2023-04-02T05:43:45;9.90;99.90
43673;DHT22;41723;49.326;8.430;2023-04-02T05:46:16;9.90;99.90
43673;DHT22;41723;49.326;8.430;2023-04-02T05:48:45;9.80;99.90
43673;DHT22;41723;49.326;8.430;2023-04-02T05:51:17;9.80;99.90
43673;DHT22;41723;49.326;8.430;2023-04-02T05:53:50;9.90;99.90
43673;DHT22;41723;49.326;8.430;2023-04-02T05:56:25;9.90;99.90
43673;DHT22;41723;49.326;8.430;2023-04-02T05:58:56;9.90;99.90
43673;DHT22;41723;49.326;8.430;2023-04-02T06:04:35;9.80;99.90
43673;DHT22;41723;49.326;8.430;2023-04-02T06:06:56;9.90;99.90
43673;DHT22;41723;49.326;8.430;2023-04-02T06:12:00;9.80;99.90
43673;DHT22;41723;49.326;8.430;2023-04-02T06:14:29;9.70;99.90
43673;DHT22;41723;49.326;8.430;2023-04-02T06:16:54;9.70;99.90
43673;DHT22;41723;49.326;8.430;2023-04-02T06:19:21;9.70;99.90
43673;DHT22;41723;49.326;8.430;2023-04-02T06:21:49;9.80;99.90
43673;DHT22;41723;49.326;8.430;2023-04-02T06:24:20;9.80;99.90
43673;DHT22;41723;49.326;8.430;2023-04-02T06:26:49;9.90;99.90
43673;DHT22;41723;49.326;8.430;2023-04-02T06:31:46;9.90;99.90
43673;DHT22;41723;49.326;8.430;2023-04-02T06:34:16;10.00;99.90
43673;DHT22;41723;49.326;8.430;2023-04-02T06:36:49;9.90;99.90
43673;DHT22;41723;49.326;8.430;2023-04-02T06:39:17;9.90;99.90
43673;DHT22;41723;49.326;8.430;2023-04-02T06:41:44;9.90;99.90
43673;DHT22;41723;49.326;8.430;2023-04-02T06:44:34;9.90;99.90
43673;DHT22;41723;49.326;8.430;2023-04-02T06:52:51;10.00;99.90
43673;DHT22;41723;49.326;8.430;2023-04-02T06:54:57;10.00;99.90
43673;DHT22;41723;49.326;8.430;2023-04-02T06:57:23;9.90;99.90
43673;DHT22;41723;49.326;8.430;2023-04-02T06:59:50;10.00;99.90
43673;DHT22;41723;49.326;8.430;2023-04-02T07:02:52;10.00;99.90
43673;DHT22;41723;49.326;8.430;2023-04-02T07:05:11;10.10;99.90
43673;DHT22;41723;49.326;8.430;2023-04-02T07:07:41;10.20;99.90
43673;DHT22;41723;49.326;8.430;2023-04-02T07:10:10;10.10;99.90
43673;DHT22;41723;49.326;8.430;2023-04-02T07:12:35;10.00;99.90
43673;DHT22;41723;49.326;8.430;2023-04-02T07:15:01;10.10;99.90
43673;DHT22;41723;49.326;8.430;2023-04-02T07:17:27;10.10;99.90
43673;DHT22;41723;49.326;8.430;2023-04-02T07:19:52;10.20;99.90
43673;DHT22;41723;49.326;8.430;2023-04-02T07:22:20;10.20;99.90
43673;DHT22;41723;49.326;8.430;2023-04-02T07:24:50;10.20;99.90
43673;DHT22;41723;49.326;8.430;2023-04-02T07:27:15;10.20;99.90
43673;DHT22;41723;49.326;8.430;2023-04-02T07:29:41;10.20;99.90
43673;DHT22;41723;49.326;8.430;2023-04-02T07:32:11;10.30;99.90
43673;DHT22;41723;49.326;8.430;2023-04-02T07:34:37;10.30;99.90
43673;DHT22;41723;49.326;8.430;2023-04-02T07:37:03;10.30;99.90
43673;DHT22;41723;49.326;8.430;2023-04-02T07:39:29;10.20;99.90
43673;DHT22;41723;49.326;8.430;2023-04-02T07:41:57;10.30;99.90
43673;DHT22;41723;49.326;8.430;2023-04-02T07:44:23;10.40;99.90
43673;DHT22;41723;49.326;8.430;2023-04-02T07:46:49;10.40;99.90
43673;DHT22;41723;49.326;8.430;2023-04-02T07:49:15;10.50;99.90
43673;DHT22;41723;49.326;8.430;2023-04-02T07:51:40;10.50;99.90
43673;DHT22;41723;49.326;8.430;2023-04-02T07:54:06;10.60;99.90
43673;DHT22;41723;49.326;8.430;2023-04-02T07:56:31;10.60;99.90
43673;DHT22;41723;49.326;8.430;2023-04-02T07:58:57;10.70;99.90
43673;DHT22;41723;49.326;8.430;2023-04-02T08:01:24;10.70;99.90
43673;DHT22;41723;49.326;8.430;2023-04-02T08:03:50;10.70;99.90
43673;DHT22;41723;49.326;8.430;2023-04-02T08:06:16;10.80;99.90
43673;DHT22;41723;49.326;8.430;2023-04-02T08:08:41;10.80;99.90
43673;DHT22;41723;49.326;8.430;2023-04-02T08:11:07;10.90;99.90
43673;DHT22;41723;49.326;8.430;2023-04-02T08:13:33;11.00;99.90
43673;DHT22;41723;49.326;8.430;2023-04-02T08:15:59;11.00;99.90
43673;DHT22;41723;49.326;8.430;2023-04-02T08:18:26;11.00;99.90
43673;DHT22;41723;49.326;8.430;2023-04-02T08:20:51;11.00;99.90
43673;DHT22;41723;49.326;8.430;2023-04-02T08:23:17;11.00;99.90
43673;DHT22;41723;49.326;8.430;2023-04-02T08:25:44;11.10;99.90
43673;DHT22;41723;49.326;8.430;2023-04-02T08:28:09;11.10;99.90
43673;DHT22;41723;49.326;8.430;2023-04-02T08:30:35;11.10;99.90
43673;DHT22;41723;49.326;8.430;2023-04-02T08:33:01;11.10;99.90
43673;DHT22;41723;49.326;8.430;2023-04-02T08:35:27;11.20;99.90
43673;DHT22;41723;49.326;8.430;2023-04-02T08:37:53;11.10;99.90
43673;DHT22;41723;49.326;8.430;2023-04-02T08:40:19;11.30;99.90
43673;DHT22;41723;49.326;8.430;2023-04-02T08:42:56;11.30;99.90
43673;DHT22;41723;49.326;8.430;2023-04-02T08:47:55;11.30;99.90
43673;DHT22;41723;49.326;8.430;2023-04-02T08:52:47;11.40;99.90
43673;DHT22;41723;49.326;8.430;2023-04-02T08:55:23;11.40;99.90
43673;DHT22;41723;49.326;8.430;2023-04-02T09:00:40;11.70;99.90
43673;DHT22;41723;49.326;8.430;2023-04-02T09:03:15;11.90;99.90
43673;DHT22;41723;49.326;8.430;2023-04-02T09:05:42;11.90;99.90
43673;DHT22;41723;49.326;8.430;2023-04-02T09:08:14;11.90;99.90
43673;DHT22;41723;49.326;8.430;2023-04-02T09:10:50;11.90;99.90
43673;DHT22;41723;49.326;8.430;2023-04-02T09:13:18;12.00;99.90
43673;DHT22;41723;49.326;8.430;2023-04-02T09:15:45;12.10;99.90
43673;DHT22;41723;49.326;8.430;2023-04-02T09:18:12;12.10;99.90
43673;DHT22;41723;49.326;8.430;2023-04-02T09:20:39;12.00;99.90
43673;DHT22;41723;49.326;8.430;2023-04-02T09:23:05;11.90;99.90
43673;DHT22;41723;49.326;8.430;2023-04-02T09:25:33;11.80;99.90
43673;DHT22;41723;49.326;8.430;2023-04-02T09:28:02;11.90;99.90
43673;DHT22;41723;49.326;8.430;2023-04-02T09:33:07;12.10;99.90
43673;DHT22;41723;49.326;8.430;2023-04-02T09:35:34;12.30;99.90
43673;DHT22;41723;49.326;8.430;2023-04-02T09:40:32;12.40;99.90
43673;DHT22;41723;49.326;8.430;2023-04-02T09:45:28;12.40;99.90
43673;DHT22;41723;49.326;8.430;2023-04-02T09:47:53;12.50;99.90
43673;DHT22;41723;49.326;8.430;2023-04-02T09:52:46;12.50;99.90
43673;DHT22;41723;49.326;8.430;2023-04-02T09:55:16;12.50;99.90
43673;DHT22;41723;49.326;8.430;2023-04-02T09:57:43;12.50;99.90
43673;DHT22;41723;49.326;8.430;2023-04-02T10:02:38;12.40;99.90
43673;DHT22;41723;49.326;8.430;2023-04-02T10:05:05;12.50;99.90
43673;DHT22;41723;49.326;8.430;2023-04-02T10:10:14;12.60;99.90
43673;DHT22;41723;49.326;8.430;2023-04-02T10:12:42;12.70;99.90
43673;DHT22;41723;49.326;8.430;2023-04-02T10:15:13;12.80;99.90
43673;DHT22;41723;49.326;8.430;2023-04-02T10:17:40;12.70;99.90
43673;DHT22;41723;49.326;8.430;2023-04-02T10:20:28;12.70;99.90
43673;DHT22;41723;49.326;8.430;2023-04-02T10:22:52;12.60;99.90
43673;DHT22;41723;49.326;8.430;2023-04-02T10:25:18;12.70;99.90
43673;DHT22;41723;49.326;8.430;2023-04-02T10:27:50;12.60;99.90
43673;DHT22;41723;49.326;8.430;2023-04-02T10:40:34;12.80;99.90
43673;DHT22;41723;49.326;8.430;2023-04-02T10:45:45;12.80;99.90
43673;DHT22;41723;49.326;8.430;2023-04-02T10:50:54;12.50;99.90
43673;DHT22;41723;49.326;8.430;2023-04-02T10:53:27;12.30;99.90
43673;DHT22;41723;49.326;8.430;2023-04-02T10:55:58;12.20;99.90
43673;DHT22;41723;49.326;8.430;2023-04-02T10:58:29;12.30;99.90
43673;DHT22;41723;49.326;8.430;2023-04-02T11:00:57;12.30;99.90
43673;DHT22;41723;49.326;8.430;2023-04-02T11:05:53;12.40;99.90
43673;DHT22;41723;49.326;8.430;2023-04-02T11:08:27;12.60;99.90
43673;DHT22;41723;49.326;8.430;2023-04-02T11:10:55;12.50;99.90
43673;DHT22;41723;49.326;8.430;2023-04-02T11:13:30;12.50;99.90
43673;DHT22;41723;49.326;8.430;2023-04-02T11:15:57;12.50;99.90
43673;DHT22;41723;49.326;8.430;2023-04-02T11:18:27;12.40;99.90
43673;DHT22;41723;49.326;8.430;2023-04-02T11:20:57;12.20;99.90
43673;DHT22;41723;49.326;8.430;2023-04-02T11:23:25;11.90;99.90
43673;DHT22;41723;49.326;8.430;2023-04-02T11:25:51;11.90;99.90
43673;DHT22;41723;49.326;8.430;2023-04-02T11:28:37;12.00;99.90
43673;DHT22;41723;49.326;8.430;2023-04-02T11:31:02;11.90;99.90
43673;DHT22;41723;49.326;8.430;2023-04-02T11:36:00;11.60;99.90
43673;DHT22;41723;49.326;8.430;2023-04-02T11:40:52;11.40;99.90
43673;DHT22;41723;49.326;8.430;2023-04-02T11:48:43;11.50;99.90
43673;DHT22;41723;49.326;8.430;2023-04-02T11:53:50;11.30;99.90
43673;DHT22;41723;49.326;8.430;2023-04-02T11:56:18;11.10;99.90
43673;DHT22;41723;49.326;8.430;2023-04-02T11:58:55;11.00;99.90
43673;DHT22;41723;49.326;8.430;2023-04-02T12:01:32;11.10;99.90
43673;DHT22;41723;49.326;8.430;2023-04-02T12:09:25;11.10;99.90
43673;DHT22;41723;49.326;8.430;2023-04-02T12:11:52;11.00;99.90
43673;DHT22;41723;49.326;8.430;2023-04-02T12:17:43;10.90;99.90
43673;DHT22;41723;49.326;8.430;2023-04-02T12:19:45;10.80;99.90
43673;DHT22;41723;49.326;8.430;2023-04-02T12:22:17;10.80;99.90
43673;DHT22;41723;49.326;8.430;2023-04-02T12:24:43;10.80;99.90
43673;DHT22;41723;49.326;8.430;2023-04-02T12:27:18;10.70;99.90
43673;DHT22;41723;49.326;8.430;2023-04-02T12:29:48;10.70;99.90
43673;DHT22;41723;49.326;8.430;2023-04-02T12:32:18;10.70;99.90
43673;DHT22;41723;49.326;8.430;2023-04-02T12:34:45;10.60;99.90
43673;DHT22;41723;49.326;8.430;2023-04-02T12:37:18;10.50;99.90
43673;DHT22;41723;49.326;8.430;2023-04-02T12:39:50;10.50;99.90
43673;DHT22;41723;49.326;8.430;2023-04-02T12:42:26;10.40;99.90
43673;DHT22;41723;49.326;8.430;2023-04-02T12:44:52;10.50;99.90
43673;DHT22;41723;49.326;8.430;2023-04-02T12:47:18;10.50;99.90
43673;DHT22;41723;49.326;8.430;2023-04-02T12:49:43;10.60;99.90
43673;DHT22;41723;49.326;8.430;2023-04-02T12:52:10;10.60;99.90
43673;DHT22;41723;49.326;8.430;2023-04-02T12:54:42;10.50;99.90
43673;DHT22;41723;49.326;8.430;2023-04-02T12:57:29;10.40;99.90
43673;DHT22;41723;49.326;8.430;2023-04-02T13:00:00;10.40;99.90
43673;DHT22;41723;49.326;8.430;2023-04-02T13:02:30;10.40;99.90
43673;DHT22;41723;49.326;8.430;2023-04-02T13:04:57;10.50;99.90
43673;DHT22;41723;49.326;8.430;2023-04-02T13:07:27;10.40;99.90
43673;DHT22;41723;49.326;8.430;2023-04-02T13:09:55;10.40;99.90
43673;DHT22;41723;49.326;8.430;2023-04-02T13:14:51;10.40;99.90
43673;DHT22;41723;49.326;8.430;2023-04-02T13:22:46;10.40;99.90
43673;DHT22;41723;49.326;8.430;2023-04-02T13:25:12;10.30;99.90
43673;DHT22;41723;49.326;8.430;2023-04-02T13:27:38;10.20;99.90
43673;DHT22;41723;49.326;8.430;2023-04-02T13:30:08;10.00;99.90
43673;DHT22;41723;49.326;8.430;2023-04-02T13:32:34;10.10;99.90
43673;DHT22;41723;49.326;8.430;2023-04-02T13:35:00;10.20;99.90
43673;DHT22;41723;49.326;8.430;2023-04-02T13:37:26;10.10;99.90
43673;DHT22;41723;49.326;8.430;2023-04-02T13:39:51;10.10;99.90
43673;DHT22;41723;49.326;8.430;2023-04-02T13:42:17;10.20;99.90
43673;DHT22;41723;49.326;8.430;2023-04-02T13:44:42;10.10;99.90
43673;DHT22;41723;49.326;8.430;2023-04-02T13:47:10;9.90;99.90
43673;DHT22;41723;49.326;8.430;2023-04-02T13:49:37;9.90;99.90
43673;DHT22;41723;49.326;8.430;2023-04-02T13:52:03;9.80;99.90
43673;DHT22;41723;49.326;8.430;2023-04-02T13:54:35;9.70;99.90
43673;DHT22;41723;49.326;8.430;2023-04-02T13:57:05;9.70;99.90
43673;DHT22;41723;49.326;8.430;2023-04-02T13:59:31;9.70;99.90
43673;DHT22;41723;49.326;8.430;2023-04-02T14:01:59;9.70;99.90
43673;DHT22;41723;49.326;8.430;2023-04-02T14:04:26;9.70;99.90
43673;DHT22;41723;49.326;8.430;2023-04-02T14:12:31;9.70;99.90
43673;DHT22;41723;49.326;8.430;2023-04-02T14:17:56;9.70;99.90
43673;DHT22;41723;49.326;8.430;2023-04-02T14:28:27;9.80;99.90
43673;DHT22;41723;49.326;8.430;2023-04-02T14:33:48;9.90;99.90
43673;DHT22;41723;49.326;8.430;2023-04-02T14:38:49;9.90;99.90
43673;DHT22;41723;49.326;8.430;2023-04-02T14:41:21;9.90;99.90
43673;DHT22;41723;49.326;8.430;2023-04-02T14:43:52;9.70;99.90
43673;DHT22;41723;49.326;8.430;2023-04-02T14:46:18;9.70;99.90
43673;DHT22;41723;49.326;8.430;2023-04-02T14:48:59;9.60;99.90
43673;DHT22;41723;49.326;8.430;2023-04-02T14:51:40;9.60;99.90
43673;DHT22;41723;49.326;8.430;2023-04-02T14:56:53;9.70;99.90
43673;DHT22;41723;49.326;8.430;2023-04-02T15:02:37;9.70;99.90
43673;DHT22;41723;49.326;8.430;2023-04-02T15:04:45;9.70;99.90
43673;DHT22;41723;49.326;8.430;2023-04-02T15:07:13;9.60;99.90
43673;DHT22;41723;49.326;8.430;2023-04-02T15:09:41;9.60;99.90
43673;DHT22;41723;49.326;8.430;2023-04-02T15:12:12;9.50;99.90
43673;DHT22;41723;49.326;8.430;2023-04-02T15:14:43;9.40;99.90
43673;DHT22;41723;49.326;8.430;2023-04-02T15:17:10;9.50;99.90
43673;DHT22;41723;49.326;8.430;2023-04-02T15:19:36;9.50;99.90
43673;DHT22;41723;49.326;8.430;2023-04-02T15:24:59;9.10;99.90
43673;DHT22;41723;49.326;8.430;2023-04-02T15:27:33;9.10;99.90
43673;DHT22;41723;49.326;8.430;2023-04-02T15:32:36;8.90;99.90
43673;DHT22;41723;49.326;8.430;2023-04-02T15:45:50;8.80;99.90
43673;DHT22;41723;49.326;8.430;2023-04-02T15:56:43;8.80;99.90
43673;DHT22;41723;49.326;8.430;2023-04-02T16:04:13;8.80;99.90
43673;DHT22;41723;49.326;8.430;2023-04-02T16:11:34;8.40;99.90
43673;DHT22;41723;49.326;8.430;2023-04-02T16:14:14;8.40;99.90
43673;DHT22;41723;49.326;8.430;2023-04-02T16:16:41;8.70;99.90
43673;DHT22;41723;49.326;8.430;2023-04-02T16:21:44;8.50;99.90
43673;DHT22;41723;49.326;8.430;2023-04-02T16:24:13;8.30;99.90
43673;DHT22;41723;49.326;8.430;2023-04-02T16:45:15;8.10;99.90
43673;DHT22;41723;49.326;8.430;2023-04-02T16:50:39;8.20;99.90
43673;DHT22;41723;49.326;8.430;2023-04-02T16:53:17;8.10;99.90
43673;DHT22;41723;49.326;8.430;2023-04-02T17:06:25;7.80;99.90
43673;DHT22;41723;49.326;8.430;2023-04-02T17:09:00;7.80;99.90
43673;DHT22;41723;49.326;8.430;2023-04-02T17:13:56;7.90;99.90
43673;DHT22;41723;49.326;8.430;2023-04-02T17:19:04;7.90;99.90
43673;DHT22;41723;49.326;8.430;2023-04-02T17:21:32;7.90;99.90
43673;DHT22;41723;49.326;8.430;2023-04-02T17:24:13;7.90;99.90
43673;DHT22;41723;49.326;8.430;2023-04-02T17:26:45;7.90;99.90
43673;DHT22;41723;49.326;8.430;2023-04-02T17:29:14;7.80;99.90
43673;DHT22;41723;49.326;8.430;2023-04-02T17:31:41;7.80;99.90
43673;DHT22;41723;49.326;8.430;2023-04-02T17:34:11;7.80;99.90
43673;DHT22;41723;49.326;8.430;2023-04-02T17:39:53;7.70;99.90
43673;DHT22;41723;49.326;8.430;2023-04-02T17:42:06;7.80;99.90
43673;DHT22;41723;49.326;8.430;2023-04-02T17:44:42;7.70;99.90
43673;DHT22;41723;49.326;8.430;2023-04-02T18:05:30;7.60;99.90
43673;DHT22;41723;49.326;8.430;2023-04-02T18:08:20;7.50;99.90
43673;DHT22;41723;49.326;8.430;2023-04-02T18:13:33;7.50;99.90
43673;DHT22;41723;49.326;8.430;2023-04-02T18:16:05;7.40;99.90
43673;DHT22;41723;49.326;8.430;2023-04-02T18:21:23;7.40;99.90
43673;DHT22;41723;49.326;8.430;2023-04-02T18:29:12;7.40;99.90
43673;DHT22;41723;49.326;8.430;2023-04-02T18:34:34;7.20;99.90
43673;DHT22;41723;49.326;8.430;2023-04-02T18:42:11;7.30;99.90
43673;DHT22;41723;49.326;8.430;2023-04-02T18:49:37;7.40;99.90
43673;DHT22;41723;49.326;8.430;2023-04-02T18:52:13;7.30;99.90
43673;DHT22;41723;49.326;8.430;2023-04-02T18:54:40;7.30;99.90
43673;DHT22;41723;49.326;8.430;2023-04-02T18:57:14;7.30;99.90
43673;DHT22;41723;49.326;8.430;2023-04-02T18:59:45;7.30;99.90
43673;DHT22;41723;49.326;8.430;2023-04-02T19:04:52;7.30;99.90
43673;DHT22;41723;49.326;8.430;2023-04-02T19:07:21;7.30;99.90
43673;DHT22;41723;49.326;8.430;2023-04-02T19:09:47;7.40;99.90
43673;DHT22;41723;49.326;8.430;2023-04-02T19:12:14;7.50;99.90
43673;DHT22;41723;49.326;8.430;2023-04-02T19:14:40;7.60;99.90
43673;DHT22;41723;49.326;8.430;2023-04-02T19:17:08;7.60;99.90
43673;DHT22;41723;49.326;8.430;2023-04-02T19:27:37;7.70;99.90
43673;DHT22;41723;49.326;8.430;2023-04-02T19:35:42;7.80;99.90
43673;DHT22;41723;49.326;8.430;2023-04-02T19:40:41;7.60;99.90
43673;DHT22;41723;49.326;8.430;2023-04-02T19:43:10;7.70;99.90
43673;DHT22;41723;49.326;8.430;2023-04-02T19:45:40;7.80;99.90
43673;DHT22;41723;49.326;8.430;2023-04-02T19:48:12;7.90;99.90
43673;DHT22;41723;49.326;8.430;2023-04-02T19:50:38;7.90;99.90
43673;DHT22;41723;49.326;8.430;2023-04-02T19:53:04;8.00;99.90
43673;DHT22;41723;49.326;8.430;2023-04-02T19:55:29;8.00;99.90
43673;DHT22;41723;49.326;8.430;2023-04-02T19:57:55;7.90;99.90
43673;DHT22;41723;49.326;8.430;2023-04-02T20:00:21;8.00;99.90
43673;DHT22;41723;49.326;8.430;2023-04-02T20:02:46;7.90;99.90
43673;DHT22;41723;49.326;8.430;2023-04-02T20:05:12;8.00;99.90
43673;DHT22;41723;49.326;8.430;2023-04-02T20:07:38;8.00;99.90
43673;DHT22;41723;49.326;8.430;2023-04-02T20:10:04;8.00;99.90
43673;DHT22;41723;49.326;8.430;2023-04-02T20:12:30;8.10;99.90
43673;DHT22;41723;49.326;8.430;2023-04-02T20:14:55;8.00;99.90
43673;DHT22;41723;49.326;8.430;2023-04-02T20:17:21;7.90;99.90
43673;DHT22;41723;49.326;8.430;2023-04-02T20:19:47;7.80;99.90
43673;DHT22;41723;49.326;8.430;2023-04-02T20:22:12;7.90;99.90
43673;DHT22;41723;49.326;8.430;2023-04-02T20:24:38;7.90;99.90
43673;DHT22;41723;49.326;8.430;2023-04-02T20:27:05;7.90;99.70
43673;DHT22;41723;49.326;8.430;2023-04-02T20:29:30;7.90;99.80
43673;DHT22;41723;49.326;8.430;2023-04-02T20:31:57;7.90;99.50
43673;DHT22;41723;49.326;8.430;2023-04-02T20:34:22;7.90;99.40
43673;DHT22;41723;49.326;8.430;2023-04-02T20:36:48;7.80;99.30
43673;DHT22;41723;49.326;8.430;2023-04-02T20:39:14;7.90;98.90
43673;DHT22;41723;49.326;8.430;2023-04-02T20:41:44;7.90;99.10
43673;DHT22;41723;49.326;8.430;2023-04-02T20:44:09;7.80;98.70
43673;DHT22;41723;49.326;8.430;2023-04-02T20:46:36;7.80;98.60
43673;DHT22;41723;49.326;8.430;2023-04-02T20:49:02;7.70;99.40
43673;DHT22;41723;49.326;8.430;2023-04-02T20:51:28;7.70;99.20
43673;DHT22;41723;49.326;8.430;2023-04-02T20:53:54;7.80;99.20
43673;DHT22;41723;49.326;8.430;2023-04-02T20:56:20;7.80;99.00
43673;DHT22;41723;49.326;8.430;2023-04-02T20:58:48;7.70;98.90
43673;DHT22;41723;49.326;8.430;2023-04-02T21:03:42;7.40;99.30
43673;DHT22;41723;49.326;8.430;2023-04-02T21:06:19;7.40;98.90
43673;DHT22;41723;49.326;8.430;2023-04-02T21:08:45;7.40;99.30
43673;DHT22;41723;49.326;8.430;2023-04-02T21:11:12;7.30;98.80